Bullard, Texas
Current Conditions -  °F | °C
As of 8:53 AM on Monday 22 Dec 2014 (Local Time) from KTYR Reporting Station
Overcast Overcast  
Wind Chill: 61°   Ceiling: 1700
Heat Index: 61°   Visibility: 10mi
Dew Point: 54°   Wind: 16mph
Humidity: 78%   Direction: 200°SSW
Pressure: 29.65"   Gusts: 25mph
Location:  32.14°N, 95.32°W
Report Text: KTYR 221453Z 20014G22KT 10SM BKN017 OVC030 16/12 A2965 RMK AO2 SLP037 T01610122 58008
Loading
Personal Weather Stations






























Interactive Weather Map New forecast layout! Learn more

10-Day Weather Forecast

Advertisements
Track Severe Weather on mobile